Terminal Aerodrome Forecast
Issued by NWS

Home | Current Version | Previous Version | Text Only | Print | Product List | Glossary On
Versions: 1 2 3 4 5 6 7 8 9 10 11 12 13 14 15 16 17
000
FTAK31 PAJN 021100
TAFAWG
TAF
PAWG 021125Z 0212/0312 VRB02KT 6SM BR VCFG BKN010 OVC015
      TEMPO 0212/0215 1/2SM FG BKN003
     FM021500 25003KT 6SM BR FEW007 BKN040
     FM022000 31004KT P6SM SCT050 SCT070
     FM030300 31004KT P6SM BKN050
      AMD LTD TO CLD VIS AND WIND 0212/0215=

USA.gov is the U.S. government's official web portal to all federal, state and local government web resources and services.